sensor_id;sensor_type;location;lat;lon;timestamp;pressure;altitude;pressure_sealevel;temperature;humidity
69127;BME280;56688;50.234;19.292;2022-07-29T00:01:16;98793.93;;;14.27;71.44
69127;BME280;56688;50.234;19.292;2022-07-29T00:03:45;98788.05;;;14.25;71.74
69127;BME280;56688;50.234;19.292;2022-07-29T00:06:12;98789.21;;;14.24;71.80
69127;BME280;56688;50.234;19.292;2022-07-29T00:08:39;98787.89;;;14.25;72.09
69127;BME280;56688;50.234;19.292;2022-07-29T00:11:06;98791.80;;;14.28;72.04
69127;BME280;56688;50.234;19.292;2022-07-29T00:13:33;98785.75;;;14.29;72.08
69127;BME280;56688;50.234;19.292;2022-07-29T00:16:00;98783.36;;;14.29;72.06
69127;BME280;56688;50.234;19.292;2022-07-29T00:18:30;98782.20;;;14.28;71.85
69127;BME280;56688;50.234;19.292;2022-07-29T00:20:58;98777.33;;;14.26;71.56
69127;BME280;56688;50.234;19.292;2022-07-29T00:23:25;98778.84;;;14.23;71.65
69127;BME280;56688;50.234;19.292;2022-07-29T00:25:52;98776.07;;;14.21;71.82
69127;BME280;56688;50.234;19.292;2022-07-29T00:28:19;98776.20;;;14.20;71.87
69127;BME280;56688;50.234;19.292;2022-07-29T00:30:46;98772.97;;;14.20;71.76
69127;BME280;56688;50.234;19.292;2022-07-29T00:33:13;98774.79;;;14.22;71.87
69127;BME280;56688;50.234;19.292;2022-07-29T00:35:40;98775.73;;;14.25;71.58
69127;BME280;56688;50.234;19.292;2022-07-29T00:38:16;98773.32;;;14.27;71.59
69127;BME280;56688;50.234;19.292;2022-07-29T00:40:44;98771.65;;;14.28;71.23
69127;BME280;56688;50.234;19.292;2022-07-29T00:43:12;98769.88;;;14.28;70.69
69127;BME280;56688;50.234;19.292;2022-07-29T00:45:41;98766.98;;;14.27;70.92
69127;BME280;56688;50.234;19.292;2022-07-29T00:48:08;98764.61;;;14.23;70.95
69127;BME280;56688;50.234;19.292;2022-07-29T00:50:36;98766.56;;;14.21;71.10
69127;BME280;56688;50.234;19.292;2022-07-29T00:53:06;98768.52;;;14.18;70.94
69127;BME280;56688;50.234;19.292;2022-07-29T00:55:33;98766.09;;;14.17;71.17
69127;BME280;56688;50.234;19.292;2022-07-29T00:58:01;98762.21;;;14.16;71.12
69127;BME280;56688;50.234;19.292;2022-07-29T01:00:28;98763.65;;;14.14;70.63
69127;BME280;56688;50.234;19.292;2022-07-29T01:02:56;98764.33;;;14.12;70.06
69127;BME280;56688;50.234;19.292;2022-07-29T01:05:24;98757.66;;;14.10;69.46
69127;BME280;56688;50.234;19.292;2022-07-29T01:08:14;98757.11;;;14.06;69.93
69127;BME280;56688;50.234;19.292;2022-07-29T01:10:43;98759.74;;;14.02;69.33
69127;BME280;56688;50.234;19.292;2022-07-29T01:13:11;98755.81;;;13.97;69.24
69127;BME280;56688;50.234;19.292;2022-07-29T01:15:44;98754.02;;;13.93;69.72
69127;BME280;56688;50.234;19.292;2022-07-29T01:18:21;98751.80;;;13.89;69.63
69127;BME280;56688;50.234;19.292;2022-07-29T01:31:51;98753.20;;;13.94;67.89
69127;BME280;56688;50.234;19.292;2022-07-29T01:34:35;98751.13;;;13.94;67.96
69127;BME280;56688;50.234;19.292;2022-07-29T01:37:15;98745.44;;;13.95;67.90
69127;BME280;56688;50.234;19.292;2022-07-29T01:39:47;98746.87;;;13.94;68.63
69127;BME280;56688;50.234;19.292;2022-07-29T01:47:42;98738.84;;;14.03;67.21
69127;BME280;56688;50.234;19.292;2022-07-29T01:50:12;98738.73;;;14.11;67.17
69127;BME280;56688;50.234;19.292;2022-07-29T01:52:44;98738.14;;;14.16;66.79
69127;BME280;56688;50.234;19.292;2022-07-29T01:55:14;98737.00;;;14.21;66.26
69127;BME280;56688;50.234;19.292;2022-07-29T01:57:44;98734.64;;;14.24;65.85
69127;BME280;56688;50.234;19.292;2022-07-29T02:00:12;98739.58;;;14.28;65.41
69127;BME280;56688;50.234;19.292;2022-07-29T02:02:43;98733.94;;;14.30;65.06
69127;BME280;56688;50.234;19.292;2022-07-29T02:05:12;98728.77;;;14.33;64.83
69127;BME280;56688;50.234;19.292;2022-07-29T02:07:42;98724.89;;;14.33;64.81
69127;BME280;56688;50.234;19.292;2022-07-29T02:10:11;98718.20;;;14.34;64.32
69127;BME280;56688;50.234;19.292;2022-07-29T02:12:40;98720.64;;;14.35;64.17
69127;BME280;56688;50.234;19.292;2022-07-29T02:15:16;98722.20;;;14.36;64.26
69127;BME280;56688;50.234;19.292;2022-07-29T02:17:46;98724.19;;;14.40;64.16
69127;BME280;56688;50.234;19.292;2022-07-29T02:20:16;98723.86;;;14.45;63.50
69127;BME280;56688;50.234;19.292;2022-07-29T02:22:44;98722.27;;;14.51;63.87
69127;BME280;56688;50.234;19.292;2022-07-29T02:25:13;98714.61;;;14.54;64.10
69127;BME280;56688;50.234;19.292;2022-07-29T02:27:43;98711.46;;;14.57;64.01
69127;BME280;56688;50.234;19.292;2022-07-29T02:30:11;98707.17;;;14.59;63.70
69127;BME280;56688;50.234;19.292;2022-07-29T02:32:41;98706.88;;;14.59;63.57
69127;BME280;56688;50.234;19.292;2022-07-29T02:35:09;98707.20;;;14.60;63.53
69127;BME280;56688;50.234;19.292;2022-07-29T02:37:39;98706.41;;;14.60;63.31
69127;BME280;56688;50.234;19.292;2022-07-29T02:40:09;98705.22;;;14.60;63.16
69127;BME280;56688;50.234;19.292;2022-07-29T02:42:39;98712.41;;;14.61;63.11
69127;BME280;56688;50.234;19.292;2022-07-29T02:45:08;98713.35;;;14.62;63.12
69127;BME280;56688;50.234;19.292;2022-07-29T02:47:42;98714.55;;;14.62;63.04
69127;BME280;56688;50.234;19.292;2022-07-29T02:50:15;98717.29;;;14.62;62.97
69127;BME280;56688;50.234;19.292;2022-07-29T02:52:47;98718.13;;;14.60;63.04
69127;BME280;56688;50.234;19.292;2022-07-29T02:58:11;98717.41;;;14.65;63.68
69127;BME280;56688;50.234;19.292;2022-07-29T03:00:40;98716.20;;;14.71;63.79
69127;BME280;56688;50.234;19.292;2022-07-29T03:03:12;98713.63;;;14.78;63.42
69127;BME280;56688;50.234;19.292;2022-07-29T03:05:40;98708.38;;;14.85;63.14
69127;BME280;56688;50.234;19.292;2022-07-29T03:08:10;98702.80;;;14.90;62.73
69127;BME280;56688;50.234;19.292;2022-07-29T03:10:39;98704.36;;;14.96;62.63
69127;BME280;56688;50.234;19.292;2022-07-29T03:13:10;98697.83;;;15.00;62.17
69127;BME280;56688;50.234;19.292;2022-07-29T03:15:37;98696.68;;;15.02;61.60
69127;BME280;56688;50.234;19.292;2022-07-29T03:18:06;98702.12;;;15.07;61.75
69127;BME280;56688;50.234;19.292;2022-07-29T03:20:33;98699.17;;;15.09;61.59
69127;BME280;56688;50.234;19.292;2022-07-29T03:23:00;98699.29;;;15.11;61.60
69127;BME280;56688;50.234;19.292;2022-07-29T03:25:27;98699.50;;;15.13;61.26
69127;BME280;56688;50.234;19.292;2022-07-29T03:27:54;98694.02;;;15.15;61.44
69127;BME280;56688;50.234;19.292;2022-07-29T03:30:21;98691.70;;;15.17;61.53
69127;BME280;56688;50.234;19.292;2022-07-29T03:32:49;98692.60;;;15.20;61.55
69127;BME280;56688;50.234;19.292;2022-07-29T03:35:33;98692.13;;;15.23;61.50
69127;BME280;56688;50.234;19.292;2022-07-29T03:38:00;98699.20;;;15.27;61.46
69127;BME280;56688;50.234;19.292;2022-07-29T03:40:35;98701.02;;;15.33;61.27
69127;BME280;56688;50.234;19.292;2022-07-29T03:43:05;98698.20;;;15.44;61.29
69127;BME280;56688;50.234;19.292;2022-07-29T03:45:35;98694.55;;;15.53;61.04
69127;BME280;56688;50.234;19.292;2022-07-29T03:48:07;98695.31;;;15.64;60.89
69127;BME280;56688;50.234;19.292;2022-07-29T03:50:36;98700.52;;;15.74;60.55
69127;BME280;56688;50.234;19.292;2022-07-29T03:53:03;98698.60;;;15.82;60.37
69127;BME280;56688;50.234;19.292;2022-07-29T03:55:35;98702.79;;;15.90;60.20
69127;BME280;56688;50.234;19.292;2022-07-29T03:58:04;98703.23;;;15.96;60.13
69127;BME280;56688;50.234;19.292;2022-07-29T04:00:34;98706.80;;;16.03;59.90
69127;BME280;56688;50.234;19.292;2022-07-29T04:03:03;98702.45;;;16.08;59.65
69127;BME280;56688;50.234;19.292;2022-07-29T04:05:36;98696.43;;;16.14;59.98
69127;BME280;56688;50.234;19.292;2022-07-29T04:08:03;98699.63;;;16.19;59.68
69127;BME280;56688;50.234;19.292;2022-07-29T04:10:30;98698.08;;;16.25;59.63
69127;BME280;56688;50.234;19.292;2022-07-29T04:13:01;98696.59;;;16.30;59.03
69127;BME280;56688;50.234;19.292;2022-07-29T04:15:28;98693.14;;;16.36;58.92
69127;BME280;56688;50.234;19.292;2022-07-29T04:17:58;98695.90;;;16.44;58.86
69127;BME280;56688;50.234;19.292;2022-07-29T04:20:25;98693.72;;;16.50;58.92
69127;BME280;56688;50.234;19.292;2022-07-29T04:22:52;98693.90;;;16.57;58.76
69127;BME280;56688;50.234;19.292;2022-07-29T04:25:19;98695.94;;;16.65;58.79
69127;BME280;56688;50.234;19.292;2022-07-29T04:27:46;98696.45;;;16.76;58.70
69127;BME280;56688;50.234;19.292;2022-07-29T04:30:30;98699.23;;;16.87;58.38
69127;BME280;56688;50.234;19.292;2022-07-29T04:32:58;98697.89;;;17.01;58.51
69127;BME280;56688;50.234;19.292;2022-07-29T04:35:28;98701.48;;;17.16;58.44
69127;BME280;56688;50.234;19.292;2022-07-29T04:38:05;98697.38;;;17.33;58.22
69127;BME280;56688;50.234;19.292;2022-07-29T04:40:33;98693.02;;;17.49;57.50
69127;BME280;56688;50.234;19.292;2022-07-29T04:43:04;98693.96;;;17.66;57.10
69127;BME280;56688;50.234;19.292;2022-07-29T04:45:31;98694.09;;;17.82;56.92
69127;BME280;56688;50.234;19.292;2022-07-29T04:47:58;98691.48;;;18.00;56.29
69127;BME280;56688;50.234;19.292;2022-07-29T04:50:25;98695.63;;;18.23;55.75
69127;BME280;56688;50.234;19.292;2022-07-29T04:52:52;98688.66;;;18.48;55.60
69127;BME280;56688;50.234;19.292;2022-07-29T04:55:19;98689.41;;;18.75;54.20
69127;BME280;56688;50.234;19.292;2022-07-29T04:57:46;98682.02;;;18.95;53.50
69127;BME280;56688;50.234;19.292;2022-07-29T05:00:14;98678.70;;;19.19;53.50
69127;BME280;56688;50.234;19.292;2022-07-29T05:02:41;98671.88;;;19.51;52.69
69127;BME280;56688;50.234;19.292;2022-07-29T05:05:08;98678.27;;;19.90;52.52
69127;BME280;56688;50.234;19.292;2022-07-29T05:07:35;98675.02;;;20.32;51.20
69127;BME280;56688;50.234;19.292;2022-07-29T05:10:02;98674.23;;;20.57;50.87
69127;BME280;56688;50.234;19.292;2022-07-29T05:12:30;98672.31;;;20.74;49.63
69127;BME280;56688;50.234;19.292;2022-07-29T05:14:57;98672.65;;;20.87;49.79
69127;BME280;56688;50.234;19.292;2022-07-29T05:17:23;98674.44;;;20.99;49.53
69127;BME280;56688;50.234;19.292;2022-07-29T05:19:50;98673.02;;;21.11;49.15
69127;BME280;56688;50.234;19.292;2022-07-29T05:22:18;98672.05;;;21.16;48.80
69127;BME280;56688;50.234;19.292;2022-07-29T05:24:46;98670.85;;;21.19;48.85
69127;BME280;56688;50.234;19.292;2022-07-29T05:27:13;98665.98;;;21.21;48.88
69127;BME280;56688;50.234;19.292;2022-07-29T05:29:40;98666.28;;;21.24;49.07
69127;BME280;56688;50.234;19.292;2022-07-29T05:32:11;98670.36;;;21.23;48.90
69127;BME280;56688;50.234;19.292;2022-07-29T05:34:38;98673.11;;;21.18;48.96
69127;BME280;56688;50.234;19.292;2022-07-29T05:37:18;98674.14;;;21.09;49.49
69127;BME280;56688;50.234;19.292;2022-07-29T05:39:46;98679.56;;;21.11;49.53
69127;BME280;56688;50.234;19.292;2022-07-29T05:42:23;98675.82;;;21.21;49.77
69127;BME280;56688;50.234;19.292;2022-07-29T05:44:49;98681.13;;;21.35;49.65
69127;BME280;56688;50.234;19.292;2022-07-29T05:47:17;98681.80;;;21.50;49.11
69127;BME280;56688;50.234;19.292;2022-07-29T05:49:44;98686.46;;;21.65;49.16
69127;BME280;56688;50.234;19.292;2022-07-29T05:52:11;98688.08;;;21.82;48.83
69127;BME280;56688;50.234;19.292;2022-07-29T05:54:40;98688.80;;;22.01;48.31
69127;BME280;56688;50.234;19.292;2022-07-29T05:57:07;98689.55;;;22.22;47.76
69127;BME280;56688;50.234;19.292;2022-07-29T05:59:36;98689.69;;;22.46;48.58
69127;BME280;56688;50.234;19.292;2022-07-29T06:02:04;98686.36;;;22.66;46.66
69127;BME280;56688;50.234;19.292;2022-07-29T06:04:32;98681.48;;;22.78;47.05
69127;BME280;56688;50.234;19.292;2022-07-29T06:07:00;98677.53;;;22.99;47.21
69127;BME280;56688;50.234;19.292;2022-07-29T06:09:28;98678.27;;;23.16;46.35
69127;BME280;56688;50.234;19.292;2022-07-29T06:11:55;98670.77;;;23.34;45.40
69127;BME280;56688;50.234;19.292;2022-07-29T06:14:22;98663.85;;;23.53;45.39
69127;BME280;56688;50.234;19.292;2022-07-29T06:16:49;98669.98;;;23.68;44.74
69127;BME280;56688;50.234;19.292;2022-07-29T06:19:16;98669.52;;;23.82;45.13
69127;BME280;56688;50.234;19.292;2022-07-29T06:21:43;98675.38;;;23.99;44.44
69127;BME280;56688;50.234;19.292;2022-07-29T06:24:11;98676.21;;;24.17;44.30
69127;BME280;56688;50.234;19.292;2022-07-29T06:26:40;98674.86;;;24.34;44.01
69127;BME280;56688;50.234;19.292;2022-07-29T06:29:08;98675.74;;;24.55;43.27
69127;BME280;56688;50.234;19.292;2022-07-29T06:31:37;98683.79;;;24.71;42.95
69127;BME280;56688;50.234;19.292;2022-07-29T06:34:04;98685.84;;;24.89;43.67
69127;BME280;56688;50.234;19.292;2022-07-29T06:36:34;98685.80;;;25.13;42.85
69127;BME280;56688;50.234;19.292;2022-07-29T06:39:05;98685.88;;;25.37;42.27
69127;BME280;56688;50.234;19.292;2022-07-29T06:41:33;98686.13;;;25.53;41.40
69127;BME280;56688;50.234;19.292;2022-07-29T06:44:05;98680.72;;;25.75;40.90
69127;BME280;56688;50.234;19.292;2022-07-29T06:46:32;98677.91;;;25.96;40.79
69127;BME280;56688;50.234;19.292;2022-07-29T06:48:59;98682.34;;;26.20;40.62
69127;BME280;56688;50.234;19.292;2022-07-29T06:51:28;98681.48;;;26.39;39.52
69127;BME280;56688;50.234;19.292;2022-07-29T06:53:55;98678.08;;;26.49;39.25
69127;BME280;56688;50.234;19.292;2022-07-29T06:56:29;98679.54;;;26.62;40.25
69127;BME280;56688;50.234;19.292;2022-07-29T06:58:57;98679.64;;;26.85;39.85
69127;BME280;56688;50.234;19.292;2022-07-29T07:01:23;98677.89;;;27.01;39.40
69127;BME280;56688;50.234;19.292;2022-07-29T07:03:51;98675.73;;;27.13;39.07
69127;BME280;56688;50.234;19.292;2022-07-29T07:06:18;98675.86;;;27.21;38.91
69127;BME280;56688;50.234;19.292;2022-07-29T07:08:45;98672.45;;;27.23;38.94
69127;BME280;56688;50.234;19.292;2022-07-29T07:11:12;98673.77;;;27.26;38.52
69127;BME280;56688;50.234;19.292;2022-07-29T07:13:39;98673.90;;;27.28;38.37
69127;BME280;56688;50.234;19.292;2022-07-29T07:16:06;98667.89;;;27.32;38.76
69127;BME280;56688;50.234;19.292;2022-07-29T07:18:32;98665.79;;;27.41;38.78
69127;BME280;56688;50.234;19.292;2022-07-29T07:20:59;98666.20;;;27.43;38.49
69127;BME280;56688;50.234;19.292;2022-07-29T07:23:26;98662.70;;;27.39;38.29
69127;BME280;56688;50.234;19.292;2022-07-29T07:25:53;98660.73;;;27.42;38.53
69127;BME280;56688;50.234;19.292;2022-07-29T07:28:20;98664.80;;;27.54;38.59
69127;BME280;56688;50.234;19.292;2022-07-29T07:30:51;98661.38;;;27.72;38.43
69127;BME280;56688;50.234;19.292;2022-07-29T07:33:19;98665.75;;;27.96;37.93
69127;BME280;56688;50.234;19.292;2022-07-29T07:35:46;98670.98;;;28.12;37.56
69127;BME280;56688;50.234;19.292;2022-07-29T07:38:13;98674.81;;;28.39;37.70
69127;BME280;56688;50.234;19.292;2022-07-29T07:40:40;98673.00;;;28.49;36.78
69127;BME280;56688;50.234;19.292;2022-07-29T07:43:08;98673.38;;;28.40;36.93
69127;BME280;56688;50.234;19.292;2022-07-29T07:45:34;98666.33;;;28.12;37.41
69127;BME280;56688;50.234;19.292;2022-07-29T07:48:04;98672.87;;;27.94;37.47
69127;BME280;56688;50.234;19.292;2022-07-29T07:50:31;98678.75;;;27.71;38.39
69127;BME280;56688;50.234;19.292;2022-07-29T07:52:58;98674.50;;;27.67;38.92
69127;BME280;56688;50.234;19.292;2022-07-29T07:55:26;98672.97;;;27.87;38.60
69127;BME280;56688;50.234;19.292;2022-07-29T07:57:54;98663.02;;;27.92;38.27
69127;BME280;56688;50.234;19.292;2022-07-29T08:00:21;98666.19;;;27.93;38.26
69127;BME280;56688;50.234;19.292;2022-07-29T08:02:50;98663.33;;;28.18;38.03
69127;BME280;56688;50.234;19.292;2022-07-29T08:05:17;98663.36;;;28.44;37.70
69127;BME280;56688;50.234;19.292;2022-07-29T08:07:45;98664.81;;;28.65;37.14
69127;BME280;56688;50.234;19.292;2022-07-29T08:10:15;98660.69;;;28.95;36.98
69127;BME280;56688;50.234;19.292;2022-07-29T08:13:04;98659.59;;;29.36;36.17
69127;BME280;56688;50.234;19.292;2022-07-29T08:15:32;98656.64;;;29.79;35.08
69127;BME280;56688;50.234;19.292;2022-07-29T08:17:59;98659.06;;;30.28;34.29
69127;BME280;56688;50.234;19.292;2022-07-29T08:20:33;98666.52;;;30.67;33.43
69127;BME280;56688;50.234;19.292;2022-07-29T08:23:03;98667.27;;;30.97;32.68
69127;BME280;56688;50.234;19.292;2022-07-29T08:25:32;98669.16;;;31.26;32.77
69127;BME280;56688;50.234;19.292;2022-07-29T08:28:04;98668.01;;;31.67;31.59
69127;BME280;56688;50.234;19.292;2022-07-29T08:30:31;98663.01;;;31.97;31.65
69127;BME280;56688;50.234;19.292;2022-07-29T08:32:59;98665.24;;;32.27;31.20
69127;BME280;56688;50.234;19.292;2022-07-29T08:35:27;98659.63;;;32.20;30.69
69127;BME280;56688;50.234;19.292;2022-07-29T08:37:58;98659.42;;;32.12;30.97
69127;BME280;56688;50.234;19.292;2022-07-29T08:40:27;98656.45;;;32.32;31.89
69127;BME280;56688;50.234;19.292;2022-07-29T08:43:03;98653.62;;;32.61;30.61
69127;BME280;56688;50.234;19.292;2022-07-29T08:45:42;98652.98;;;32.81;30.20
69127;BME280;56688;50.234;19.292;2022-07-29T08:48:18;98651.73;;;33.28;29.80
69127;BME280;56688;50.234;19.292;2022-07-29T08:50:47;98656.92;;;33.55;28.76
69127;BME280;56688;50.234;19.292;2022-07-29T08:53:15;98655.69;;;33.81;28.41
69127;BME280;56688;50.234;19.292;2022-07-29T08:55:45;98653.80;;;33.91;27.88
69127;BME280;56688;50.234;19.292;2022-07-29T08:58:13;98655.52;;;34.05;28.52
69127;BME280;56688;50.234;19.292;2022-07-29T09:00:43;98654.02;;;34.42;27.67
69127;BME280;56688;50.234;19.292;2022-07-29T09:03:15;98650.10;;;34.75;27.83
69127;BME280;56688;50.234;19.292;2022-07-29T09:05:43;98643.00;;;34.94;27.78
69127;BME280;56688;50.234;19.292;2022-07-29T09:08:14;98645.83;;;35.32;27.13
69127;BME280;56688;50.234;19.292;2022-07-29T09:10:43;98647.83;;;35.50;26.40
69127;BME280;56688;50.234;19.292;2022-07-29T09:13:10;98649.46;;;35.56;26.62
69127;BME280;56688;50.234;19.292;2022-07-29T09:15:37;98648.70;;;35.68;25.83
69127;BME280;56688;50.234;19.292;2022-07-29T09:18:04;98645.24;;;35.45;26.25
69127;BME280;56688;50.234;19.292;2022-07-29T09:20:30;98647.14;;;35.23;26.66
69127;BME280;56688;50.234;19.292;2022-07-29T09:23:13;98648.31;;;35.25;26.61
69127;BME280;56688;50.234;19.292;2022-07-29T09:25:50;98643.08;;;35.26;26.19
69127;BME280;56688;50.234;19.292;2022-07-29T09:28:17;98647.89;;;35.27;26.59
69127;BME280;56688;50.234;19.292;2022-07-29T09:30:53;98644.63;;;35.44;26.89
69127;BME280;56688;50.234;19.292;2022-07-29T09:33:21;98639.33;;;35.50;26.80
69127;BME280;56688;50.234;19.292;2022-07-29T09:36:05;98640.61;;;35.50;26.21
69127;BME280;56688;50.234;19.292;2022-07-29T09:38:33;98633.52;;;35.39;26.73
69127;BME280;56688;50.234;19.292;2022-07-29T09:41:04;98630.33;;;35.41;27.39
69127;BME280;56688;50.234;19.292;2022-07-29T09:43:33;98624.80;;;35.52;25.96
69127;BME280;56688;50.234;19.292;2022-07-29T09:46:16;98614.98;;;35.35;27.10
69127;BME280;56688;50.234;19.292;2022-07-29T09:48:43;98615.91;;;35.44;26.79
69127;BME280;56688;50.234;19.292;2022-07-29T09:51:18;98617.17;;;35.52;26.33
69127;BME280;56688;50.234;19.292;2022-07-29T09:53:53;98613.83;;;35.29;26.34
69127;BME280;56688;50.234;19.292;2022-07-29T09:59:07;98612.48;;;34.86;26.57
69127;BME280;56688;50.234;19.292;2022-07-29T10:01:34;98604.89;;;34.58;27.38
69127;BME280;56688;50.234;19.292;2022-07-29T10:04:02;98600.16;;;34.45;27.42
69127;BME280;56688;50.234;19.292;2022-07-29T10:06:29;98595.89;;;34.30;28.00
69127;BME280;56688;50.234;19.292;2022-07-29T10:09:11;98590.38;;;34.24;27.86
69127;BME280;56688;50.234;19.292;2022-07-29T10:11:38;98594.86;;;34.21;28.40
69127;BME280;56688;50.234;19.292;2022-07-29T10:14:15;98593.74;;;34.08;28.45
69127;BME280;56688;50.234;19.292;2022-07-29T10:16:42;98592.42;;;33.97;28.13
69127;BME280;56688;50.234;19.292;2022-07-29T10:19:10;98593.64;;;33.82;28.98
69127;BME280;56688;50.234;19.292;2022-07-29T10:21:37;98596.49;;;33.73;28.89
69127;BME280;56688;50.234;19.292;2022-07-29T10:24:06;98589.24;;;33.57;28.92
69127;BME280;56688;50.234;19.292;2022-07-29T10:26:41;98580.45;;;33.51;28.41
69127;BME280;56688;50.234;19.292;2022-07-29T10:29:08;98588.86;;;33.41;29.03
69127;BME280;56688;50.234;19.292;2022-07-29T10:34:36;98587.46;;;33.08;28.82
69127;BME280;56688;50.234;19.292;2022-07-29T10:42:28;98580.20;;;32.70;29.81
69127;BME280;56688;50.234;19.292;2022-07-29T10:45:01;98578.42;;;32.70;29.69
69127;BME280;56688;50.234;19.292;2022-07-29T10:47:30;98579.66;;;32.59;29.99
69127;BME280;56688;50.234;19.292;2022-07-29T10:50:00;98577.80;;;32.54;30.39
69127;BME280;56688;50.234;19.292;2022-07-29T10:55:38;98576.08;;;32.82;30.64
69127;BME280;56688;50.234;19.292;2022-07-29T11:00:39;98576.75;;;33.01;30.21
69127;BME280;56688;50.234;19.292;2022-07-29T11:03:06;98579.50;;;32.93;29.14
69127;BME280;56688;50.234;19.292;2022-07-29T11:05:52;98577.32;;;32.67;29.77
69127;BME280;56688;50.234;19.292;2022-07-29T11:08:23;98574.85;;;32.32;30.30
69127;BME280;56688;50.234;19.292;2022-07-29T11:13:55;98573.67;;;31.58;31.59
69127;BME280;56688;50.234;19.292;2022-07-29T11:16:23;98574.08;;;31.38;32.20
69127;BME280;56688;50.234;19.292;2022-07-29T11:21:52;98575.81;;;31.48;32.16
69127;BME280;56688;50.234;19.292;2022-07-29T11:24:28;98564.23;;;31.50;32.27
69127;BME280;56688;50.234;19.292;2022-07-29T11:27:15;98563.79;;;31.65;32.38
69127;BME280;56688;50.234;19.292;2022-07-29T11:29:57;98561.23;;;31.90;31.68
69127;BME280;56688;50.234;19.292;2022-07-29T11:32:38;98556.52;;;32.30;31.05
69127;BME280;56688;50.234;19.292;2022-07-29T11:35:21;98548.02;;;32.68;30.60
69127;BME280;56688;50.234;19.292;2022-07-29T11:49:25;98549.88;;;32.71;30.18
69127;BME280;56688;50.234;19.292;2022-07-29T11:51:59;98545.77;;;32.63;30.39
69127;BME280;56688;50.234;19.292;2022-07-29T11:54:32;98547.61;;;32.87;30.96
69127;BME280;56688;50.234;19.292;2022-07-29T11:57:20;98542.44;;;33.40;29.96
69127;BME280;56688;50.234;19.292;2022-07-29T12:00:07;98539.05;;;33.89;28.98
69127;BME280;56688;50.234;19.292;2022-07-29T12:02:41;98545.27;;;34.10;28.48
69127;BME280;56688;50.234;19.292;2022-07-29T12:05:14;98545.07;;;34.07;27.49
69127;BME280;56688;50.234;19.292;2022-07-29T12:10:40;98543.10;;;34.07;28.44
69127;BME280;56688;50.234;19.292;2022-07-29T12:13:08;98541.35;;;34.27;28.38
69127;BME280;56688;50.234;19.292;2022-07-29T12:15:36;98542.77;;;34.76;28.13
69127;BME280;56688;50.234;19.292;2022-07-29T12:18:14;98538.05;;;35.48;27.68
69127;BME280;56688;50.234;19.292;2022-07-29T12:20:44;98533.20;;;36.11;25.84
69127;BME280;56688;50.234;19.292;2022-07-29T12:23:11;98524.22;;;36.44;25.44
69127;BME280;56688;50.234;19.292;2022-07-29T12:25:43;98524.45;;;36.85;24.76
69127;BME280;56688;50.234;19.292;2022-07-29T12:28:15;98523.29;;;36.99;24.47
69127;BME280;56688;50.234;19.292;2022-07-29T12:30:52;98515.69;;;36.94;24.60
69127;BME280;56688;50.234;19.292;2022-07-29T12:35:56;98524.42;;;36.79;24.27
69127;BME280;56688;50.234;19.292;2022-07-29T12:38:44;98524.08;;;36.93;24.43
69127;BME280;56688;50.234;19.292;2022-07-29T12:41:11;98521.61;;;37.13;24.53
69127;BME280;56688;50.234;19.292;2022-07-29T12:43:52;98515.74;;;37.28;24.05
69127;BME280;56688;50.234;19.292;2022-07-29T12:46:19;98512.26;;;37.55;23.59
69127;BME280;56688;50.234;19.292;2022-07-29T12:48:51;98507.17;;;37.68;23.33
69127;BME280;56688;50.234;19.292;2022-07-29T12:51:38;98503.79;;;37.46;23.51
69127;BME280;56688;50.234;19.292;2022-07-29T12:54:10;98496.60;;;37.05;23.99
69127;BME280;56688;50.234;19.292;2022-07-29T12:56:38;98503.16;;;37.00;24.23
69127;BME280;56688;50.234;19.292;2022-07-29T13:01:39;98502.20;;;37.00;24.23
69127;BME280;56688;50.234;19.292;2022-07-29T13:04:06;98495.68;;;36.67;24.57
69127;BME280;56688;50.234;19.292;2022-07-29T13:11:34;98494.66;;;35.68;25.57
69127;BME280;56688;50.234;19.292;2022-07-29T13:14:02;98497.39;;;35.39;27.07
69127;BME280;56688;50.234;19.292;2022-07-29T13:16:32;98498.91;;;35.27;26.76
69127;BME280;56688;50.234;19.292;2022-07-29T13:19:09;98502.75;;;35.04;26.56
69127;BME280;56688;50.234;19.292;2022-07-29T13:21:38;98506.34;;;34.73;26.34
69127;BME280;56688;50.234;19.292;2022-07-29T13:24:06;98501.45;;;34.44;27.10
69127;BME280;56688;50.234;19.292;2022-07-29T13:26:34;98492.20;;;34.34;27.52
69127;BME280;56688;50.234;19.292;2022-07-29T13:29:01;98486.36;;;34.41;27.19
69127;BME280;56688;50.234;19.292;2022-07-29T13:31:27;98485.98;;;34.60;27.30
69127;BME280;56688;50.234;19.292;2022-07-29T13:33:54;98480.23;;;34.81;26.43
69127;BME280;56688;50.234;19.292;2022-07-29T13:36:23;98473.56;;;34.87;25.89
69127;BME280;56688;50.234;19.292;2022-07-29T13:38:49;98472.70;;;35.12;26.67
69127;BME280;56688;50.234;19.292;2022-07-29T13:41:16;98461.92;;;35.48;26.06
69127;BME280;56688;50.234;19.292;2022-07-29T13:43:43;98460.02;;;35.85;25.79
69127;BME280;56688;50.234;19.292;2022-07-29T13:46:10;98452.77;;;36.32;25.33
69127;BME280;56688;50.234;19.292;2022-07-29T13:48:37;98447.95;;;36.80;24.73
69127;BME280;56688;50.234;19.292;2022-07-29T13:51:04;98450.09;;;37.19;24.26
69127;BME280;56688;50.234;19.292;2022-07-29T13:53:31;98441.20;;;37.42;23.88
69127;BME280;56688;50.234;19.292;2022-07-29T13:55:58;98439.77;;;37.74;24.14
69127;BME280;56688;50.234;19.292;2022-07-29T13:58:25;98436.54;;;37.81;23.01
69127;BME280;56688;50.234;19.292;2022-07-29T14:00:52;98433.21;;;37.49;23.23
69127;BME280;56688;50.234;19.292;2022-07-29T14:03:22;98430.05;;;37.05;24.27
69127;BME280;56688;50.234;19.292;2022-07-29T14:05:49;98427.81;;;36.93;24.07
69127;BME280;56688;50.234;19.292;2022-07-29T14:08:15;98420.54;;;36.75;24.99
69127;BME280;56688;50.234;19.292;2022-07-29T14:10:42;98417.48;;;36.51;24.51